createdAt,value
2023-03-02T00:03:18.027Z,2.10
2023-03-02T00:06:13.577Z,1.95
2023-03-02T00:09:13.064Z,1.70
2023-03-02T00:14:53.371Z,1.70
2023-03-02T00:21:38.593Z,1.77
2023-03-02T00:24:12.750Z,1.73
2023-03-02T00:26:52.554Z,1.85
2023-03-02T00:29:26.466Z,1.80
2023-03-02T00:32:17.602Z,1.92
2023-03-02T00:34:54.902Z,1.95
2023-03-02T00:37:46.993Z,1.90
2023-03-02T00:40:45.805Z,1.80
2023-03-02T00:43:21.395Z,1.80
2023-03-02T00:45:53.450Z,1.75
2023-03-02T00:48:26.771Z,1.80
2023-03-02T00:51:14.325Z,2.10
2023-03-02T00:56:26.478Z,1.95
2023-03-02T00:59:40.921Z,1.83
2023-03-02T01:02:29.044Z,1.95
2023-03-02T01:06:26.963Z,1.98
2023-03-02T01:17:03.581Z,1.67
2023-03-02T01:20:25.548Z,1.90
2023-03-02T01:29:47.417Z,1.73
2023-03-02T01:34:19.071Z,1.88
2023-03-02T01:36:54.305Z,1.92
2023-03-02T01:39:36.650Z,2.08
2023-03-02T01:42:10.741Z,2.60
2023-03-02T01:44:52.716Z,2.35
2023-03-02T01:47:36.808Z,2.15
2023-03-02T01:50:26.627Z,2.08
2023-03-02T01:53:09.703Z,1.95
2023-03-02T01:55:47.098Z,1.63
2023-03-02T01:58:25.103Z,1.95
2023-03-02T02:01:02.203Z,1.88
2023-03-02T02:03:36.746Z,2.13
2023-03-02T02:06:34.850Z,1.85
2023-03-02T02:09:12.889Z,2.40
2023-03-02T02:11:49.244Z,2.30
2023-03-02T02:14:20.756Z,2.50
2023-03-02T02:16:54.390Z,2.47
2023-03-02T02:20:14.146Z,2.50
2023-03-02T02:22:49.209Z,2.20
2023-03-02T02:25:47.086Z,2.13
2023-03-02T02:28:24.805Z,2.10
2023-03-02T02:31:25.344Z,2.15
2023-03-02T02:34:07.998Z,2.10
2023-03-02T02:36:49.601Z,2.15
2023-03-02T02:39:26.502Z,1.92
2023-03-02T02:42:13.254Z,2.05
2023-03-02T02:44:45.858Z,1.98
2023-03-02T02:47:22.913Z,2.15
2023-03-02T02:50:01.241Z,1.95
2023-03-02T02:52:36.368Z,2.15
2023-03-02T02:55:25.366Z,2.25
2023-03-02T02:58:14.858Z,1.75
2023-03-02T03:00:46.610Z,2.00
2023-03-02T03:03:37.201Z,1.90
2023-03-02T03:06:15.122Z,2.10
2023-03-02T03:08:48.326Z,2.15
2023-03-02T03:11:34.366Z,2.63
2023-03-02T03:14:34.541Z,1.92
2023-03-02T03:17:14.012Z,2.25
2023-03-02T03:19:54.485Z,2.10
2023-03-02T03:22:39.133Z,2.10
2023-03-02T03:25:17.734Z,2.22
2023-03-02T03:27:50.024Z,2.13
2023-03-02T03:30:24.735Z,2.20
2023-03-02T03:32:56.649Z,2.15
2023-03-02T03:35:34.149Z,2.15
2023-03-02T03:38:09.389Z,2.10
2023-03-02T03:40:39.841Z,2.17
2023-03-02T03:43:11.031Z,2.03
2023-03-02T03:45:47.192Z,1.98
2023-03-02T03:48:17.327Z,2.00
2023-03-02T03:50:46.611Z,1.80
2023-03-02T03:53:17.517Z,2.00
2023-03-02T03:55:46.465Z,1.90
2023-03-02T03:58:17.477Z,2.30
2023-03-02T04:00:49.577Z,1.95
2023-03-02T04:03:22.210Z,1.98
2023-03-02T04:05:54.238Z,2.25
2023-03-02T04:08:28.035Z,1.85
2023-03-02T04:11:02.376Z,1.85
2023-03-02T04:13:34.099Z,2.05
2023-03-02T04:16:05.823Z,1.92
2023-03-02T04:18:35.131Z,1.83
2023-03-02T04:21:08.959Z,2.33
2023-03-02T04:23:38.732Z,2.30
2023-03-02T04:26:10.831Z,1.92
2023-03-02T04:28:42.443Z,2.00
2023-03-02T04:31:13.536Z,1.75
2023-03-02T04:33:49.008Z,2.00
2023-03-02T04:36:20.979Z,2.00
2023-03-02T04:38:54.532Z,2.20
2023-03-02T04:41:37.880Z,2.15
2023-03-02T04:44:09.185Z,1.73
2023-03-02T04:46:39.202Z,2.15
2023-03-02T04:49:11.186Z,2.28
2023-03-02T04:51:49.002Z,2.30
2023-03-02T04:54:26.506Z,1.85
2023-03-02T04:57:02.196Z,2.25
2023-03-02T04:59:33.950Z,2.13
2023-03-02T05:02:08.970Z,1.73
2023-03-02T05:04:42.728Z,2.10
2023-03-02T05:07:16.313Z,2.03
2023-03-02T05:09:46.291Z,1.85
2023-03-02T05:12:18.401Z,2.00
2023-03-02T05:14:50.555Z,2.10
2023-03-02T05:17:22.039Z,2.13
2023-03-02T05:19:50.896Z,2.22
2023-03-02T05:22:25.490Z,2.10
2023-03-02T05:25:00.870Z,1.90
2023-03-02T05:27:35.253Z,2.05
2023-03-02T05:30:08.802Z,1.90
2023-03-02T05:32:41.827Z,2.22
2023-03-02T05:35:14.343Z,1.92
2023-03-02T05:37:47.018Z,2.20
2023-03-02T05:40:25.470Z,2.03
2023-03-02T05:42:56.138Z,2.10
2023-03-02T05:45:43.299Z,1.80
2023-03-02T05:48:14.765Z,1.90
2023-03-02T05:50:46.590Z,2.00
2023-03-02T05:53:16.791Z,2.15
2023-03-02T05:55:46.243Z,1.95
2023-03-02T05:58:21.830Z,2.30
2023-03-02T06:00:51.026Z,2.00
2023-03-02T06:03:27.685Z,2.03
2023-03-02T06:06:06.030Z,2.03
2023-03-02T06:08:42.182Z,2.38
2023-03-02T06:11:12.743Z,2.15
2023-03-02T06:13:43.141Z,2.10
2023-03-02T06:16:14.742Z,2.00
2023-03-02T06:18:49.536Z,1.90
2023-03-02T06:21:18.811Z,2.10
2023-03-02T06:23:50.754Z,1.83
2023-03-02T06:26:22.235Z,1.80
2023-03-02T06:28:53.981Z,2.10
2023-03-02T06:31:24.775Z,2.13
2023-03-02T06:33:54.792Z,2.20
2023-03-02T06:36:34.194Z,1.98
2023-03-02T06:39:07.906Z,1.98
2023-03-02T06:41:38.711Z,1.83
2023-03-02T06:44:13.192Z,1.95
2023-03-02T06:46:46.346Z,2.22
2023-03-02T06:49:19.055Z,2.20
2023-03-02T06:51:54.718Z,1.95
2023-03-02T06:54:34.210Z,1.95
2023-03-02T06:57:06.181Z,2.00
2023-03-02T06:59:38.029Z,2.10
2023-03-02T07:02:08.470Z,1.92
2023-03-02T07:04:41.744Z,1.75
2023-03-02T07:07:13.512Z,1.90
2023-03-02T07:09:45.496Z,1.90
2023-03-02T07:12:15.233Z,1.98
2023-03-02T07:14:46.625Z,2.03
2023-03-02T07:17:21.691Z,1.98
2023-03-02T07:19:50.867Z,2.00
2023-03-02T07:22:22.631Z,2.15
2023-03-02T07:24:53.912Z,2.10
2023-03-02T07:27:26.465Z,1.95
2023-03-02T07:30:05.325Z,1.90
2023-03-02T07:32:37.608Z,2.17
2023-03-02T07:35:09.148Z,2.03
2023-03-02T07:37:45.770Z,2.15
2023-03-02T07:40:19.486Z,1.98
2023-03-02T07:42:53.071Z,1.90
2023-03-02T07:45:26.584Z,1.90
2023-03-02T07:48:10.292Z,1.88
2023-03-02T07:50:41.118Z,2.08
2023-03-02T07:53:11.194Z,2.03
2023-03-02T07:55:45.997Z,2.03
2023-03-02T07:58:16.293Z,2.40
2023-03-02T08:00:47.268Z,2.35
2023-03-02T08:03:21.175Z,2.05
2023-03-02T08:05:54.528Z,2.35
2023-03-02T08:08:39.016Z,2.10
2023-03-02T08:11:18.911Z,2.08
2023-03-02T08:13:59.063Z,2.38
2023-03-02T08:16:37.700Z,2.40
2023-03-02T08:19:13.210Z,2.03
2023-03-02T08:21:42.583Z,2.30
2023-03-02T08:24:16.523Z,2.22
2023-03-02T08:26:46.281Z,2.30
2023-03-02T08:29:17.522Z,2.05
2023-03-02T08:31:46.756Z,2.25
2023-03-02T08:34:17.469Z,2.30
2023-03-02T08:36:48.493Z,2.40
2023-03-02T08:39:21.010Z,2.45
2023-03-02T08:41:56.560Z,2.25
2023-03-02T08:44:38.384Z,2.10
2023-03-02T08:47:10.464Z,2.33
2023-03-02T08:49:45.141Z,2.10
2023-03-02T08:52:16.886Z,2.28
2023-03-02T08:54:48.966Z,2.40
2023-03-02T08:57:20.978Z,2.40
2023-03-02T08:59:54.116Z,2.40
2023-03-02T09:02:24.572Z,2.10
2023-03-02T09:04:55.241Z,2.40
2023-03-02T09:07:25.540Z,2.03
2023-03-02T09:09:54.864Z,2.38
2023-03-02T09:12:35.171Z,2.58
2023-03-02T09:15:08.702Z,2.20
2023-03-02T09:17:45.654Z,2.13
2023-03-02T09:20:16.598Z,2.97
2023-03-02T09:22:53.195Z,2.35
2023-03-02T09:25:31.810Z,2.30
2023-03-02T09:28:14.652Z,2.10
2023-03-02T09:31:05.465Z,2.17
2023-03-02T09:33:39.150Z,2.30
2023-03-02T09:36:13.944Z,1.90
2023-03-02T09:38:46.767Z,2.05
2023-03-02T09:41:24.359Z,2.25
2023-03-02T09:44:44.323Z,2.10
2023-03-02T09:47:41.416Z,2.15
2023-03-02T09:50:46.820Z,2.00
2023-03-02T09:54:11.268Z,2.13
2023-03-02T09:56:46.574Z,2.08
2023-03-02T09:59:42.545Z,2.13
2023-03-02T10:02:40.728Z,2.70
2023-03-02T10:05:18.064Z,3.10
2023-03-02T10:07:53.524Z,2.90
2023-03-02T10:11:07.252Z,3.08
2023-03-02T10:13:47.326Z,3.43
2023-03-02T10:16:43.231Z,3.17
2023-03-02T10:19:49.477Z,3.50
2023-03-02T10:22:40.466Z,3.50
2023-03-02T10:25:17.665Z,2.90
2023-03-02T10:28:10.856Z,2.80
2023-03-02T10:30:46.230Z,2.40
2023-03-02T10:33:23.944Z,2.00
2023-03-02T10:35:59.187Z,2.20
2023-03-02T10:38:34.578Z,2.25
2023-03-02T10:41:16.345Z,2.65
2023-03-02T10:43:50.458Z,2.60
2023-03-02T10:46:23.115Z,2.30
2023-03-02T10:49:02.370Z,2.22
2023-03-02T10:51:49.635Z,2.53
2023-03-02T10:54:26.534Z,2.50
2023-03-02T10:57:37.371Z,2.60
2023-03-02T11:00:26.853Z,2.50
2023-03-02T11:03:23.025Z,2.30
2023-03-02T11:06:01.424Z,2.53
2023-03-02T11:08:37.441Z,2.38
2023-03-02T11:11:34.188Z,2.50
2023-03-02T11:14:18.539Z,2.40
2023-03-02T11:16:51.005Z,2.58
2023-03-02T11:19:42.586Z,2.58
2023-03-02T11:22:42.802Z,2.35
2023-03-02T11:25:26.974Z,2.35
2023-03-02T11:28:41.709Z,2.40
2023-03-02T11:31:46.640Z,2.33
2023-03-02T11:34:25.714Z,2.25
2023-03-02T11:37:17.170Z,2.40
2023-03-02T11:40:25.492Z,2.45
2023-03-02T11:43:08.908Z,2.10
2023-03-02T11:45:57.366Z,2.40
2023-03-02T11:48:53.087Z,2.30
2023-03-02T11:51:37.899Z,2.45
2023-03-02T11:54:35.935Z,2.53
2023-03-02T11:57:07.350Z,2.80
2023-03-02T11:59:41.219Z,2.40
2023-03-02T12:02:14.277Z,2.42
2023-03-02T12:04:49.395Z,2.42
2023-03-02T12:07:26.653Z,2.40
2023-03-02T12:10:33.959Z,2.33
2023-03-02T12:13:14.953Z,2.60
2023-03-02T12:16:02.964Z,2.53
2023-03-02T12:18:46.622Z,2.40
2023-03-02T12:21:33.891Z,2.40
2023-03-02T12:24:05.098Z,2.50
2023-03-02T12:26:41.586Z,2.50
2023-03-02T12:29:17.233Z,2.28
2023-03-02T12:32:02.033Z,2.67
2023-03-02T12:35:12.691Z,2.40
2023-03-02T12:38:09.320Z,2.70
2023-03-02T12:41:13.202Z,2.33
2023-03-02T12:44:10.875Z,2.33
2023-03-02T12:46:51.408Z,2.42
2023-03-02T12:50:01.441Z,2.30
2023-03-02T12:52:45.457Z,2.17
2023-03-02T12:55:23.041Z,2.40
2023-03-02T12:58:04.972Z,2.08
2023-03-02T13:01:07.164Z,2.80
2023-03-02T13:03:54.494Z,2.50
2023-03-02T13:06:38.734Z,2.40
2023-03-02T13:09:16.848Z,2.13
2023-03-02T13:11:51.053Z,2.53
2023-03-02T13:14:42.420Z,2.63
2023-03-02T13:17:27.028Z,2.17
2023-03-02T13:20:07.316Z,2.15
2023-03-02T13:22:54.846Z,2.47
2023-03-02T13:26:05.899Z,2.50
2023-03-02T13:28:37.253Z,2.30
2023-03-02T13:31:25.423Z,2.60
2023-03-02T13:34:03.304Z,2.28
2023-03-02T13:40:34.469Z,2.30
2023-03-02T13:43:35.292Z,2.38
2023-03-02T13:46:13.322Z,2.20
2023-03-02T13:49:09.706Z,2.47
2023-03-02T13:51:46.825Z,2.58
2023-03-02T13:54:34.723Z,2.60
2023-03-02T13:57:07.100Z,2.72
2023-03-02T13:59:38.179Z,2.20
2023-03-02T14:02:37.385Z,2.75
2023-03-02T14:05:09.569Z,2.33
2023-03-02T14:07:38.746Z,2.50
2023-03-02T14:10:11.062Z,2.50
2023-03-02T14:12:46.229Z,2.60
2023-03-02T14:15:18.659Z,2.35
2023-03-02T14:17:52.932Z,2.47
2023-03-02T14:20:22.920Z,2.58
2023-03-02T14:22:52.770Z,2.45
2023-03-02T14:25:22.669Z,2.53
2023-03-02T14:27:53.628Z,2.72
2023-03-02T14:30:24.999Z,2.67
2023-03-02T14:32:57.541Z,2.70
2023-03-02T14:35:33.402Z,2.70
2023-03-02T14:38:06.389Z,2.80
2023-03-02T14:40:40.913Z,2.75
2023-03-02T14:43:13.213Z,2.60
2023-03-02T14:45:44.913Z,2.60
2023-03-02T14:48:15.277Z,2.80
2023-03-02T14:50:51.458Z,2.55
2023-03-02T14:53:33.595Z,2.67
2023-03-02T14:56:03.121Z,2.25
2023-03-02T14:58:35.413Z,2.60
2023-03-02T15:01:11.455Z,2.28
2023-03-02T15:03:44.779Z,2.53
2023-03-02T15:06:34.510Z,2.80
2023-03-02T15:09:06.433Z,2.42
2023-03-02T15:11:38.400Z,2.75
2023-03-02T15:14:10.723Z,2.60
2023-03-02T15:16:41.404Z,2.60
2023-03-02T15:19:12.747Z,2.90
2023-03-02T15:21:46.144Z,2.45
2023-03-02T15:24:14.980Z,2.78
2023-03-02T15:26:45.784Z,2.35
2023-03-02T15:29:15.054Z,2.70
2023-03-02T15:31:46.577Z,3.15
2023-03-02T15:34:18.236Z,2.40
2023-03-02T15:36:46.835Z,2.58
2023-03-02T15:39:18.651Z,2.50
2023-03-02T15:41:48.774Z,2.65
2023-03-02T15:44:22.664Z,2.58
2023-03-02T15:46:56.783Z,2.38
2023-03-02T15:49:31.379Z,2.40
2023-03-02T15:52:02.417Z,2.45
2023-03-02T15:54:33.083Z,2.70
2023-03-02T15:57:02.921Z,2.70
2023-03-02T15:59:34.858Z,2.70
2023-03-02T16:02:06.534Z,2.70
2023-03-02T16:04:44.946Z,2.53
2023-03-02T16:07:13.992Z,2.67
2023-03-02T16:09:42.906Z,2.40
2023-03-02T16:12:13.318Z,2.60
2023-03-02T16:14:42.545Z,2.35
2023-03-02T16:17:12.639Z,2.40
2023-03-02T16:19:42.480Z,2.45
2023-03-02T16:22:12.336Z,2.50
2023-03-02T16:24:42.128Z,2.60
2023-03-02T16:27:12.169Z,2.53
2023-03-02T16:29:40.618Z,2.58
2023-03-02T16:32:45.279Z,2.70
2023-03-02T16:35:14.868Z,2.75
2023-03-02T16:37:46.138Z,2.38
2023-03-02T16:40:17.873Z,2.42
2023-03-02T16:42:47.129Z,2.70
2023-03-02T16:45:17.770Z,2.58
2023-03-02T16:47:47.732Z,2.53
2023-03-02T16:50:21.208Z,2.72
2023-03-02T16:52:54.222Z,2.83
2023-03-02T16:55:26.086Z,2.70
2023-03-02T16:58:38.793Z,2.80
2023-03-02T17:01:12.592Z,2.70
2023-03-02T17:03:42.888Z,2.70
2023-03-02T17:06:17.643Z,2.55
2023-03-02T17:08:47.376Z,2.67
2023-03-02T17:11:17.845Z,2.90
2023-03-02T17:13:46.651Z,2.78
2023-03-02T17:16:17.844Z,2.70
2023-03-02T17:18:48.231Z,2.60
2023-03-02T17:21:20.420Z,2.92
2023-03-02T17:23:50.211Z,2.47
2023-03-02T17:26:19.186Z,2.60
2023-03-02T17:28:50.271Z,2.58
2023-03-02T17:31:19.460Z,2.40
2023-03-02T17:33:50.640Z,2.50
2023-03-02T17:36:22.725Z,2.55
2023-03-02T17:38:52.934Z,2.30
2023-03-02T17:41:22.981Z,2.63
2023-03-02T17:43:53.709Z,2.60
2023-03-02T17:46:26.606Z,2.60
2023-03-02T17:49:05.116Z,2.40
2023-03-02T17:51:35.419Z,2.40
2023-03-02T17:54:06.611Z,2.30
2023-03-02T17:56:37.753Z,2.33
2023-03-02T17:59:08.686Z,2.60
2023-03-02T18:01:40.357Z,2.80
2023-03-02T18:04:10.869Z,2.60
2023-03-02T18:06:42.778Z,2.28
2023-03-02T18:09:13.600Z,2.50
2023-03-02T18:11:44.014Z,2.20
2023-03-02T18:14:17.870Z,2.60
2023-03-02T18:16:48.599Z,2.22
2023-03-02T18:19:18.198Z,2.10
2023-03-02T18:21:49.787Z,2.20
2023-03-02T18:24:18.774Z,2.20
2023-03-02T18:26:50.710Z,2.15
2023-03-02T18:29:23.412Z,2.10
2023-03-02T18:31:54.365Z,2.15
2023-03-02T18:34:24.859Z,2.10
2023-03-02T18:36:54.986Z,2.28
2023-03-02T18:39:30.836Z,1.90
2023-03-02T18:42:03.017Z,2.40
2023-03-02T18:44:33.408Z,2.13
2023-03-02T18:47:20.615Z,2.28
2023-03-02T18:50:22.213Z,2.33
2023-03-02T18:52:54.605Z,2.17
2023-03-02T18:55:31.003Z,2.25
2023-03-02T18:58:05.203Z,2.10
2023-03-02T19:00:38.085Z,2.08
2023-03-02T19:03:06.998Z,2.22
2023-03-02T19:05:41.810Z,2.22
2023-03-02T19:08:23.166Z,2.30
2023-03-02T19:11:13.941Z,2.17
2023-03-02T19:13:50.096Z,2.17
2023-03-02T19:16:19.244Z,2.08
2023-03-02T19:18:50.602Z,2.35
2023-03-02T19:21:30.286Z,2.17
2023-03-02T19:24:03.189Z,2.25
2023-03-02T19:26:34.108Z,2.00
2023-03-02T19:29:45.388Z,2.17
2023-03-02T19:32:16.963Z,2.17
2023-03-02T19:34:53.228Z,2.38
2023-03-02T19:40:15.040Z,2.08
2023-03-02T19:42:47.197Z,2.30
2023-03-02T19:45:23.080Z,2.08
2023-03-02T19:47:56.507Z,2.00
2023-03-02T19:50:34.169Z,2.00
2023-03-02T19:55:54.289Z,2.13
2023-03-02T19:58:30.848Z,2.00
2023-03-02T20:01:05.323Z,2.05
2023-03-02T20:06:53.034Z,2.10
2023-03-02T20:09:27.080Z,2.20
2023-03-02T20:12:02.950Z,2.38
2023-03-02T20:14:34.935Z,2.20
2023-03-02T20:17:08.732Z,2.17
2023-03-02T20:19:41.117Z,2.08
2023-03-02T20:22:13.334Z,2.10
2023-03-02T20:24:47.452Z,2.40
2023-03-02T20:27:34.268Z,2.28
2023-03-02T20:30:25.122Z,2.30
2023-03-02T20:33:35.039Z,2.30
2023-03-02T20:36:08.924Z,2.20
2023-03-02T20:38:42.608Z,2.28
2023-03-02T20:43:44.417Z,2.00
2023-03-02T20:46:31.568Z,2.28
2023-03-02T20:49:04.891Z,2.15
2023-03-02T20:51:35.516Z,2.50
2023-03-02T20:54:06.612Z,2.30
2023-03-02T20:56:36.559Z,2.38
2023-03-02T20:59:06.793Z,2.35
2023-03-02T21:01:40.782Z,2.50
2023-03-02T21:04:11.141Z,2.40
2023-03-02T21:06:44.434Z,2.35
2023-03-02T21:09:14.192Z,2.30
2023-03-02T21:11:42.986Z,2.38
2023-03-02T21:14:14.696Z,2.28
2023-03-02T21:16:46.551Z,2.45
2023-03-02T21:19:19.100Z,2.30
2023-03-02T21:21:50.772Z,2.20
2023-03-02T21:24:22.041Z,2.25
2023-03-02T21:26:54.814Z,2.30
2023-03-02T21:29:27.596Z,2.20
2023-03-02T21:32:01.291Z,2.13
2023-03-02T21:34:32.797Z,2.10
2023-03-02T21:37:04.130Z,2.13
2023-03-02T21:39:34.221Z,2.38
2023-03-02T21:42:05.148Z,2.20
2023-03-02T21:44:34.535Z,2.20
2023-03-02T21:47:04.994Z,2.40
2023-03-02T21:49:34.189Z,2.10
2023-03-02T21:52:02.924Z,2.13
2023-03-02T21:54:33.775Z,2.10
2023-03-02T21:57:02.891Z,2.10
2023-03-02T21:59:33.286Z,2.10
2023-03-02T22:02:03.268Z,2.10
2023-03-02T22:04:35.515Z,2.05
2023-03-02T22:07:05.494Z,2.08
2023-03-02T22:09:34.508Z,2.03
2023-03-02T22:12:12.716Z,1.80
2023-03-02T22:14:42.914Z,1.98
2023-03-02T22:17:32.172Z,2.03
2023-03-02T22:20:15.691Z,2.03
2023-03-02T22:22:46.771Z,1.75
2023-03-02T22:25:20.622Z,1.70
2023-03-02T22:27:50.262Z,1.90
2023-03-02T22:30:25.666Z,2.08
2023-03-02T22:33:02.078Z,1.95
2023-03-02T22:35:32.657Z,2.00
2023-03-02T22:38:16.907Z,2.00
2023-03-02T22:40:47.318Z,1.92
2023-03-02T22:43:22.361Z,1.80
2023-03-02T22:45:51.286Z,1.80
2023-03-02T22:48:24.998Z,1.83
2023-03-02T22:50:54.299Z,1.85
2023-03-02T22:53:38.183Z,1.80
2023-03-02T22:56:26.734Z,1.87
2023-03-02T22:59:04.390Z,1.77
2023-03-02T23:01:43.606Z,1.77
2023-03-02T23:04:25.475Z,1.73
2023-03-02T23:07:03.601Z,1.83
2023-03-02T23:09:35.198Z,1.65
2023-03-02T23:12:34.117Z,1.80
2023-03-02T23:15:18.806Z,1.90
2023-03-02T23:17:49.708Z,2.03
2023-03-02T23:20:20.654Z,2.10
2023-03-02T23:22:50.596Z,2.00
2023-03-02T23:25:20.512Z,2.00
2023-03-02T23:27:49.876Z,2.10
2023-03-02T23:30:22.340Z,2.00
2023-03-02T23:32:55.032Z,2.08
2023-03-02T23:35:33.224Z,1.90
2023-03-02T23:38:05.952Z,2.10
2023-03-02T23:40:36.606Z,1.90
2023-03-02T23:43:07.652Z,2.08
2023-03-02T23:45:39.164Z,2.30
2023-03-02T23:48:10.463Z,2.03
2023-03-02T23:50:39.175Z,2.08
2023-03-02T23:53:09.640Z,2.00
2023-03-02T23:55:45.102Z,2.25
2023-03-02T23:58:14.674Z,1.80
